createdAt,value
2023-04-16T00:00:21.981Z,7.84
2023-04-16T00:05:44.514Z,7.85
2023-04-16T00:10:47.168Z,7.84
2023-04-16T00:15:49.757Z,7.83
2023-04-16T00:20:53.464Z,7.79
2023-04-16T00:25:59.798Z,7.77
2023-04-16T00:31:02.636Z,7.77
2023-04-16T00:36:05.735Z,7.79
2023-04-16T00:41:08.282Z,7.76
2023-04-16T00:46:12.330Z,7.78
2023-04-16T00:51:15.758Z,7.76
2023-04-16T00:56:20.495Z,7.74
2023-04-16T01:01:23.347Z,7.71
2023-04-16T01:06:26.797Z,7.70
2023-04-16T01:11:29.455Z,7.69
2023-04-16T01:16:32.913Z,7.68
2023-04-16T01:21:35.812Z,7.67
2023-04-16T01:26:38.420Z,7.66
2023-04-16T01:31:41.144Z,7.65
2023-04-16T01:36:43.956Z,7.66
2023-04-16T01:41:46.563Z,7.64
2023-04-16T01:46:49.234Z,7.65
2023-04-16T01:51:52.934Z,7.65
2023-04-16T01:56:55.592Z,7.66
2023-04-16T02:02:11.026Z,7.67
2023-04-16T02:07:14.201Z,7.69
2023-04-16T02:12:17.788Z,7.68
2023-04-16T02:17:20.473Z,7.66
2023-04-16T02:22:23.099Z,7.61
2023-04-16T02:27:26.054Z,7.60
2023-04-16T02:32:28.775Z,7.56
2023-04-16T02:37:31.401Z,7.54
2023-04-16T02:42:33.978Z,7.48
2023-04-16T02:47:36.540Z,7.48
2023-04-16T02:52:39.429Z,7.45
2023-04-16T02:57:42.615Z,7.43
2023-04-16T03:02:45.437Z,7.41
2023-04-16T03:07:48.286Z,7.37
2023-04-16T03:12:51.047Z,7.35
2023-04-16T03:17:54.674Z,7.30
2023-04-16T03:22:57.560Z,7.26
2023-04-16T03:28:00.110Z,7.19
2023-04-16T03:33:02.750Z,7.14
2023-04-16T03:38:05.396Z,7.11
2023-04-16T03:43:07.934Z,7.11
2023-04-16T03:48:10.710Z,7.07
2023-04-16T03:53:14.255Z,7.06
2023-04-16T03:58:17.529Z,7.04
2023-04-16T04:03:20.472Z,7.02
2023-04-16T04:08:23.364Z,6.99
2023-04-16T04:13:27.126Z,6.96
2023-04-16T04:18:29.772Z,6.95
2023-04-16T04:23:32.387Z,6.93
2023-04-16T04:28:35.998Z,6.92
2023-04-16T04:33:38.708Z,6.89
2023-04-16T04:38:41.474Z,6.88
2023-04-16T04:43:44.083Z,6.83
2023-04-16T04:48:46.664Z,6.83
2023-04-16T04:53:49.267Z,6.78
2023-04-16T04:58:51.953Z,6.79
2023-04-16T05:03:54.580Z,6.79
2023-04-16T05:08:57.280Z,6.80
2023-04-16T05:13:59.826Z,6.82
2023-04-16T05:19:02.724Z,6.85
2023-04-16T05:24:06.278Z,6.88
2023-04-16T05:29:08.927Z,6.91
2023-04-16T05:34:11.994Z,6.94
2023-04-16T05:39:16.465Z,7.05
2023-04-16T05:44:19.039Z,7.14
2023-04-16T05:49:22.200Z,7.25
2023-04-16T05:54:24.800Z,7.35
2023-04-16T05:59:27.716Z,7.54
2023-04-16T06:04:31.084Z,7.68
2023-04-16T06:09:33.868Z,7.84
2023-04-16T06:14:36.666Z,7.90
2023-04-16T06:19:39.241Z,7.85
2023-04-16T06:24:42.089Z,8.13
2023-04-16T06:29:44.714Z,8.33
2023-04-16T06:34:47.267Z,8.25
2023-04-16T06:39:49.928Z,8.02
2023-04-16T06:44:52.532Z,8.09
2023-04-16T06:49:55.139Z,7.97
2023-04-16T06:54:58.579Z,7.93
2023-04-16T07:00:01.300Z,8.09
2023-04-16T07:05:04.832Z,8.11
2023-04-16T07:10:08.765Z,8.17
2023-04-16T07:15:11.546Z,8.31
2023-04-16T07:20:14.274Z,8.36
2023-04-16T07:25:17.195Z,8.51
2023-04-16T07:30:19.773Z,8.57
2023-04-16T07:35:22.462Z,8.54
2023-04-16T07:40:25.199Z,8.43
2023-04-16T07:45:27.954Z,8.51
2023-04-16T07:50:30.989Z,8.50
2023-04-16T07:55:33.602Z,8.62
2023-04-16T08:00:36.370Z,8.70
2023-04-16T08:05:39.045Z,8.80
2023-04-16T08:10:41.737Z,8.94
2023-04-16T08:15:44.430Z,8.96
2023-04-16T08:20:47.253Z,9.00
2023-04-16T08:25:51.741Z,9.09
2023-04-16T08:30:55.249Z,9.08
2023-04-16T08:35:57.941Z,9.04
2023-04-16T08:41:06.643Z,8.95
2023-04-16T08:46:11.622Z,8.98
2023-04-16T08:51:17.269Z,9.03
2023-04-16T08:56:24.644Z,8.90
2023-04-16T09:01:27.876Z,8.72
2023-04-16T09:06:32.498Z,8.55
2023-04-16T09:11:36.074Z,8.38
2023-04-16T09:16:39.814Z,8.30
2023-04-16T09:21:47.344Z,8.25
2023-04-16T09:26:52.741Z,8.25
2023-04-16T09:32:06.547Z,8.36
2023-04-16T09:37:17.190Z,8.54
2023-04-16T09:42:44.303Z,8.61
2023-04-16T09:47:47.313Z,8.76
2023-04-16T09:52:51.615Z,8.81
2023-04-16T09:58:02.014Z,9.04
2023-04-16T10:03:07.089Z,9.44
2023-04-16T10:08:14.623Z,9.69
2023-04-16T10:13:19.209Z,9.69
2023-04-16T10:18:22.974Z,9.53
2023-04-16T10:23:26.672Z,9.45
2023-04-16T10:28:30.671Z,9.41
2023-04-16T10:33:37.170Z,9.31
2023-04-16T10:38:45.965Z,9.27
2023-04-16T10:43:50.899Z,9.50
2023-04-16T10:48:55.813Z,9.67
2023-04-16T10:54:19.481Z,9.57
2023-04-16T10:59:24.120Z,9.47
2023-04-16T11:04:33.262Z,9.29
2023-04-16T11:10:02.168Z,9.20
2023-04-16T11:15:06.353Z,9.12
2023-04-16T11:20:26.129Z,9.02
2023-04-16T11:25:31.590Z,8.99
2023-04-16T11:30:37.305Z,9.00
2023-04-16T11:35:41.514Z,8.94
2023-04-16T11:40:44.473Z,8.92
2023-04-16T11:46:20.181Z,8.90
2023-04-16T11:51:27.407Z,8.89
2023-04-16T11:56:33.108Z,9.02
2023-04-16T12:01:37.849Z,9.12
2023-04-16T12:06:40.837Z,9.06
2023-04-16T12:11:43.746Z,8.89
2023-04-16T12:16:46.785Z,8.85
2023-04-16T12:21:51.088Z,8.85
2023-04-16T12:27:03.072Z,8.85
2023-04-16T12:32:23.416Z,8.78
2023-04-16T12:37:26.748Z,8.72
2023-04-16T12:42:35.645Z,8.70
2023-04-16T12:47:38.288Z,8.78
2023-04-16T12:52:41.093Z,8.93
2023-04-16T12:57:44.557Z,9.00
2023-04-16T13:02:47.658Z,9.15
2023-04-16T13:07:50.708Z,9.27
2023-04-16T13:12:53.520Z,9.32
2023-04-16T13:17:56.390Z,9.26
2023-04-16T13:22:59.112Z,9.19
2023-04-16T13:28:01.917Z,9.34
2023-04-16T13:33:04.648Z,9.47
2023-04-16T13:38:07.324Z,9.49
2023-04-16T13:43:10.148Z,9.50
2023-04-16T13:48:12.870Z,9.51
2023-04-16T13:53:15.620Z,9.51
2023-04-16T13:58:18.333Z,9.56
2023-04-16T14:03:20.946Z,9.67
2023-04-16T14:08:23.650Z,9.81
2023-04-16T14:13:26.320Z,9.94
2023-04-16T14:18:28.917Z,10.00
2023-04-16T14:23:31.833Z,10.08
2023-04-16T14:28:35.786Z,10.19
2023-04-16T14:33:38.877Z,10.38
2023-04-16T14:38:43.318Z,10.55
2023-04-16T14:43:46.113Z,10.68
2023-04-16T14:48:48.730Z,10.65
2023-04-16T14:53:51.564Z,10.41
2023-04-16T14:58:54.171Z,10.11
2023-04-16T15:03:58.304Z,9.89
2023-04-16T15:09:04.011Z,9.69
2023-04-16T15:14:06.901Z,9.60
2023-04-16T15:19:09.856Z,9.51
2023-04-16T15:24:12.828Z,9.36
2023-04-16T15:29:15.971Z,9.25
2023-04-16T15:34:18.538Z,9.25
2023-04-16T15:39:21.671Z,9.18
2023-04-16T15:44:24.273Z,9.15
2023-04-16T15:49:27.004Z,9.20
2023-04-16T15:54:31.716Z,9.26
2023-04-16T15:59:34.471Z,9.28
2023-04-16T16:04:37.301Z,9.25
2023-04-16T16:09:40.076Z,9.20
2023-04-16T16:14:44.246Z,9.16
2023-04-16T16:19:47.110Z,9.14
2023-04-16T16:24:53.801Z,9.14
2023-04-16T16:29:56.693Z,9.09
2023-04-16T16:34:59.277Z,9.03
2023-04-16T16:40:01.833Z,9.01
2023-04-16T16:45:06.114Z,9.01
2023-04-16T16:50:11.409Z,8.99
2023-04-16T17:00:21.539Z,9.05
2023-04-16T17:05:24.286Z,9.05
2023-04-16T17:10:26.993Z,9.03
2023-04-16T17:15:29.753Z,8.99
2023-04-16T17:20:33.900Z,9.01
2023-04-16T17:25:36.709Z,8.94
2023-04-16T17:30:39.353Z,8.86
2023-04-16T17:35:41.982Z,8.85
2023-04-16T17:40:44.656Z,8.85
2023-04-16T17:45:47.270Z,8.85
2023-04-16T17:50:50.151Z,8.84
2023-04-16T17:55:55.246Z,8.83
2023-04-16T18:00:59.507Z,8.82
2023-04-16T18:06:02.284Z,8.83
2023-04-16T18:11:08.777Z,8.82
2023-04-16T18:16:17.711Z,8.77
2023-04-16T18:21:20.637Z,8.72
2023-04-16T18:26:23.354Z,8.69
2023-04-16T18:31:26.775Z,8.65
2023-04-16T18:36:29.641Z,8.69
2023-04-16T18:41:32.328Z,8.71
2023-04-16T18:46:34.955Z,8.68
2023-04-16T18:51:37.620Z,8.66
2023-04-16T18:56:40.280Z,8.66
2023-04-16T19:01:43.208Z,8.62
2023-04-16T19:06:48.196Z,8.57
2023-04-16T19:11:51.006Z,8.58
2023-04-16T19:16:53.979Z,8.58
2023-04-16T19:21:56.589Z,8.58
2023-04-16T19:26:59.150Z,8.63
2023-04-16T19:32:02.729Z,8.60
2023-04-16T19:37:05.791Z,8.52
2023-04-16T19:42:08.434Z,8.53
2023-04-16T19:47:11.403Z,8.51
2023-04-16T19:52:13.997Z,8.50
2023-04-16T19:57:16.611Z,8.49
2023-04-16T20:02:19.332Z,8.42
2023-04-16T20:07:22.153Z,8.41
2023-04-16T20:12:24.742Z,8.44
2023-04-16T20:17:27.331Z,8.39
2023-04-16T20:22:29.905Z,8.35
2023-04-16T20:27:33.814Z,8.31
2023-04-16T20:32:36.400Z,8.25
2023-04-16T20:37:41.942Z,8.25
2023-04-16T20:42:47.558Z,8.25
2023-04-16T20:47:51.133Z,8.23
2023-04-16T20:52:53.789Z,8.25
2023-04-16T20:57:56.657Z,8.25
2023-04-16T21:02:59.422Z,8.25
2023-04-16T21:08:02.528Z,8.24
2023-04-16T21:13:05.157Z,8.20
2023-04-16T21:18:09.243Z,8.20
2023-04-16T21:23:11.823Z,8.18
2023-04-16T21:28:14.479Z,8.18
2023-04-16T21:33:17.660Z,8.20
2023-04-16T21:38:21.183Z,8.16
2023-04-16T21:43:24.111Z,8.15
2023-04-16T21:48:28.379Z,8.12
2023-04-16T21:53:32.047Z,8.06
2023-04-16T21:58:34.814Z,8.10
2023-04-16T22:03:40.483Z,8.12
2023-04-16T22:08:43.431Z,8.14
2023-04-16T22:13:47.814Z,8.15
2023-04-16T22:18:50.797Z,8.08
2023-04-16T22:23:53.354Z,8.08
2023-04-16T22:28:56.435Z,8.14
2023-04-16T22:33:59.811Z,8.15
2023-04-16T22:39:08.444Z,8.16
2023-04-16T22:44:11.148Z,8.15
2023-04-16T22:49:14.068Z,8.11
2023-04-16T22:54:16.699Z,8.13
2023-04-16T22:59:19.235Z,8.11
2023-04-16T23:04:21.807Z,8.09
2023-04-16T23:09:24.473Z,8.11
2023-04-16T23:14:27.059Z,8.09
2023-04-16T23:19:31.200Z,8.09
2023-04-16T23:24:34.024Z,8.11
2023-04-16T23:29:37.337Z,8.06
2023-04-16T23:34:40.028Z,8.04
2023-04-16T23:39:42.655Z,8.07
2023-04-16T23:44:45.714Z,8.07
2023-04-16T23:49:48.312Z,8.10
2023-04-16T23:54:50.932Z,8.08
2023-04-16T23:59:53.603Z,8.05
